Time;durP1;ratioP1;P1;durP2;ratioP2;P2;SDS_P1;SDS_P2;PMS_P1;PMS_P2;Temp;Humidity;BMP_temperature;BMP_pressure;BME280_temperature;BME280_humidity;BME280_pressure;Samples;Min_cycle;Max_cycle;Signal;HPM_P1;HPM_P2
2023/06/30 06:09:35;;;;;;;;;6.00;5.33;;;;;17.44;65.82;101285.34;5585752;23;45654;-71
2023/06/30 06:12:02;;;;;;;;;4.00;4.00;;;;;17.42;64.79;101272.88;4969694;28;45414;-70
2023/06/30 06:14:27;;;;;;;;;8.33;8.33;;;;;17.55;64.95;101292.53;4975599;28;45583;-70
2023/06/30 06:16:52;;;;;;;;;5.33;5.33;;;;;17.58;64.59;101284.53;4977367;28;45421;-70
2023/06/30 06:19:20;;;;;;;;;6.00;5.33;;;;;17.67;64.90;101292.56;4968653;28;45502;-71
2023/06/30 06:21:46;;;;;;;;;7.67;6.67;;;;;17.76;64.33;101292.63;4976127;28;46231;-72
2023/06/30 06:24:12;;;;;;;;;8.33;6.33;;;;;17.78;64.38;101284.56;4972633;28;45916;-72
2023/06/30 06:26:37;;;;;;;;;6.00;6.00;;;;;17.76;64.47;101270.34;4974363;28;45315;-72
2023/06/30 06:29:03;;;;;;;;;8.00;6.67;;;;;18.00;63.83;101293.59;4972935;28;45545;-71
2023/06/30 06:31:29;;;;;;;;;9.00;8.67;;;;;18.10;63.52;101296.28;4972779;28;45431;-72
2023/06/30 06:33:54;;;;;;;;;9.00;7.67;;;;;18.27;63.29;101301.66;4971632;28;45288;-72
2023/06/30 06:36:21;;;;;;;;;6.33;6.00;;;;;18.46;62.94;101302.56;4968131;28;45263;-71
2023/06/30 06:38:47;;;;;;;;;9.67;8.33;;;;;18.79;62.59;101319.50;4968436;28;45454;-71
2023/06/30 06:41:12;;;;;;;;;11.33;8.67;;;;;18.96;62.20;101300.72;4965976;28;46038;-71
2023/06/30 06:43:37;;;;;;;;;7.67;7.00;;;;;19.31;60.84;101307.78;4972547;28;45438;-71
2023/06/30 06:46:03;;;;;;;;;10.33;10.00;;;;;19.47;60.50;101295.22;4970755;28;45488;-73
2023/06/30 06:48:28;;;;;;;;;9.33;9.33;;;;;19.81;59.51;101309.38;4968892;28;45419;-72
2023/06/30 06:50:59;;;;;;;;;12.33;12.33;;;;;20.10;58.71;101314.56;4968019;28;46165;-72
2023/06/30 06:53:28;;;;;;;;;13.00;11.67;;;;;20.38;58.21;101314.38;4969589;28;45427;-72
2023/06/30 06:55:54;;;;;;;;;9.00;9.00;;;;;20.62;56.97;101308.81;4970068;28;45435;-73
2023/06/30 06:58:20;;;;;;;;;8.33;8.33;;;;;20.83;56.40;101301.47;4973518;28;45520;-73
2023/06/30 07:00:48;;;;;;;;;12.67;10.67;;;;;21.11;55.21;101307.44;4969480;28;46146;-72
2023/06/30 07:03:14;;;;;;;;;10.00;8.33;;;;;21.36;54.83;101302.66;4978071;28;45293;-73
2023/06/30 07:05:44;;;;;;;;;11.67;10.67;;;;;21.64;53.71;101309.50;4969997;28;45442;-72
2023/06/30 07:08:11;;;;;;;;;10.00;9.00;;;;;21.91;54.29;101312.72;4975723;28;45450;-72
2023/06/30 07:10:36;;;;;;;;;9.00;8.33;;;;;22.20;55.28;101314.13;4966866;28;46107;-73
2023/06/30 07:13:03;;;;;;;;;8.33;8.33;;;;;22.32;49.79;101306.75;4967142;28;45380;-73
2023/06/30 07:15:28;;;;;;;;;14.33;10.33;;;;;22.43;50.45;101302.97;4976973;28;45317;-73
2023/06/30 07:17:55;;;;;;;;;12.67;12.00;;;;;22.63;52.40;101311.63;4963398;28;45332;-73
2023/06/30 07:20:21;;;;;;;;;11.00;11.00;;;;;22.78;50.85;101305.97;4971922;28;46710;-73
2023/06/30 07:22:46;;;;;;;;;13.33;11.00;;;;;22.93;49.85;101301.19;4970859;28;45380;-73
2023/06/30 07:25:12;;;;;;;;;13.33;10.33;;;;;23.10;48.92;101300.91;4972925;28;45356;-72
2023/06/30 07:27:38;;;;;;;;;12.67;12.67;;;;;23.29;51.00;101312.22;4970396;28;45664;-73
2023/06/30 07:30:07;;;;;;;;;11.00;11.00;;;;;23.42;49.38;101308.38;4971031;28;45500;-74
2023/06/30 07:32:34;;;;;;;;;13.00;13.00;;;;;23.70;47.94;101315.88;4966716;28;46454;-74
2023/06/30 07:35:01;;;;;;;;;13.67;12.00;;;;;23.92;49.95;101319.91;4970295;28;45229;-73
2023/06/30 07:37:27;;;;;;;;;10.00;8.00;;;;;24.07;50.35;101300.63;4968492;28;45563;-73
2023/06/30 07:39:52;;;;;;;;;11.00;11.00;;;;;24.22;47.07;101309.28;4970126;28;54420;-73
2023/06/30 07:42:17;;;;;;;;;14.00;11.33;;;;;24.37;46.64;101318.84;4964745;28;45349;-73
2023/06/30 07:44:42;;;;;;;;;11.00;10.00;;;;;24.52;46.83;101315.81;4966683;28;45404;-73
2023/06/30 07:47:08;;;;;;;;;12.67;10.33;;;;;24.70;46.41;101322.53;4969636;28;46082;-73
2023/06/30 07:49:33;;;;;;;;;14.33;9.33;;;;;24.84;45.72;101303.25;4964571;28;46519;-75
2023/06/30 07:51:58;;;;;;;;;9.00;9.00;;;;;25.04;45.82;101310.81;4968649;28;45388;-74
2023/06/30 07:54:24;;;;;;;;;11.50;10.75;;;;;25.22;44.01;101319.34;4972622;28;46805;-72
2023/06/30 07:56:49;;;;;;;;;9.33;9.33;;;;;25.32;44.82;101309.16;4963663;28;50686;-72
2023/06/30 07:59:15;;;;;;;;;11.00;10.00;;;;;25.54;42.62;101322.06;4969385;28;45968;-75
2023/06/30 08:01:40;;;;;;;;;15.00;13.33;;;;;25.73;44.18;101319.69;4967757;28;46293;-75
2023/06/30 08:04:05;;;;;;;;;9.75;8.25;;;;;25.82;44.15;101309.47;4972859;28;45399;-73
2023/06/30 08:06:31;;;;;;;;;7.75;7.75;;;;;26.01;43.21;101311.63;4961393;28;45378;-74
2023/06/30 08:08:56;;;;;;;;;10.75;9.00;;;;;26.02;45.26;101289.91;4969919;28;45300;-73
2023/06/30 08:11:21;;;;;;;;;11.25;10.25;;;;;26.28;40.78;101316.16;4970390;28;45328;-73
2023/06/30 08:13:47;;;;;;;;;8.00;7.00;;;;;26.48;40.31;101315.50;4978949;28;45451;-73
2023/06/30 08:16:12;;;;;;;;;11.00;8.75;;;;;26.67;40.97;101315.78;4972602;28;45475;-73
2023/06/30 08:18:38;;;;;;;;;8.25;7.50;;;;;26.76;44.12;101307.34;4974479;28;45450;-73
2023/06/30 08:21:03;;;;;;;;;7.00;7.00;;;;;26.74;40.03;101306.50;4964977;28;45427;-72
2023/06/30 08:23:29;;;;;;;;;7.25;7.00;;;;;26.85;39.33;101299.81;4975258;28;45264;-73
2023/06/30 08:25:55;;;;;;;;;7.00;5.00;;;;;26.86;40.88;101294.34;4968084;28;45432;-73
2023/06/30 08:28:21;;;;;;;;;3.25;3.00;;;;;26.90;37.54;101303.25;4979156;28;46363;-73
2023/06/30 08:30:47;;;;;;;;;4.00;4.00;;;;;26.81;35.50;101299.03;4975587;28;45502;-73
2023/06/30 08:33:13;;;;;;;;;5.25;4.00;;;;;26.82;37.54;101299.91;4977071;28;45711;-73
2023/06/30 08:35:38;;;;;;;;;5.00;4.00;;;;;26.90;40.40;101286.97;4969420;28;45438;-73
2023/06/30 08:38:04;;;;;;;;;4.00;3.00;;;;;27.05;36.18;101291.84;4967574;28;47237;-72
2023/06/30 08:40:31;;;;;;;;;4.00;4.00;;;;;27.16;40.59;101281.50;4973680;28;45471;-73
2023/06/30 08:43:02;;;;;;;;;4.25;4.25;;;;;27.46;38.59;101300.31;4968804;28;45439;-73
2023/06/30 08:45:29;;;;;;;;;3.00;3.00;;;;;27.64;39.82;101290.56;4963803;28;45802;-73
2023/06/30 08:48:04;;;;;;;;;4.00;4.00;;;;;27.88;36.94;101294.19;4980139;28;46208;-73
2023/06/30 08:50:31;;;;;;;;;3.40;3.40;;;;;28.13;38.29;101293.19;4964397;28;45339;-74
2023/06/30 08:52:58;;;;;;;;;0.20;0.20;;;;;28.27;32.58;101285.34;4973058;28;45322;-74
2023/06/30 08:55:24;;;;;;;;;3.75;3.00;;;;;28.61;33.09;101289.38;4971803;28;45233;-72
2023/06/30 08:57:53;;;;;;;;;3.75;3.00;;;;;28.88;35.23;101285.47;4979749;28;46167;-74
2023/06/30 09:00:19;;;;;;;;;4.00;4.00;;;;;29.17;36.65;101289.63;4974117;28;45420;-73
2023/06/30 09:02:45;;;;;;;;;3.00;2.40;;;;;29.30;35.30;101287.22;4974820;28;45451;-73
2023/06/30 09:05:10;;;;;;;;;4.25;4.00;;;;;29.15;36.26;101261.56;4973183;28;45455;-73
2023/06/30 09:07:45;;;;;;;;;3.75;3.75;;;;;29.26;33.12;101280.13;4976627;28;46202;-73
2023/06/30 09:10:12;;;;;;;;;1.60;1.60;;;;;29.28;32.57;101270.06;4974669;28;45475;-73
2023/06/30 09:12:39;;;;;;;;;3.40;3.40;;;;;29.16;35.30;101276.09;4977075;28;45305;-73
2023/06/30 09:15:09;;;;;;;;;4.00;4.00;;;;;29.04;33.04;101263.91;4970179;28;45245;-73
2023/06/30 09:17:34;;;;;;;;;5.20;5.20;;;;;29.19;35.86;101271.38;4974776;28;45316;-74
2023/06/30 09:20:00;;;;;;;;;5.50;4.75;;;;;29.20;32.78;101264.97;4968314;28;45475;-74
2023/06/30 09:22:25;;;;;;;;;5.00;4.25;;;;;29.26;35.34;101265.66;4967082;28;45442;-74
2023/06/30 09:24:51;;;;;;;;;0.75;0.75;;;;;29.33;32.71;101256.25;4967445;28;45324;-73
2023/06/30 09:27:17;;;;;;;;;2.25;2.25;;;;;29.49;32.50;101265.44;4969155;28;46298;-74
2023/06/30 09:29:52;;;;;;;;;5.40;4.80;;;;;29.76;32.89;101270.56;4968804;28;45420;-73
2023/06/30 09:32:18;;;;;;;;;5.80;4.40;;;;;30.06;35.26;101270.94;4973675;28;45311;-73
2023/06/30 09:34:43;;;;;;;;;6.50;5.00;;;;;30.19;31.83;101252.97;4971771;28;45578;-74
2023/06/30 09:37:14;;;;;;;;;4.25;4.25;;;;;30.32;33.87;101256.88;4976145;28;46536;-73
2023/06/30 09:39:42;;;;;;;;;5.20;4.20;;;;;30.32;31.71;101256.88;4973247;28;45477;-73
2023/06/30 09:42:15;;;;;;;;;4.80;4.80;;;;;30.32;32.71;101265.06;4978812;28;45511;-73
2023/06/30 09:44:41;;;;;;;;;4.40;4.00;;;;;30.35;33.85;101261.28;4975071;28;45708;-74
2023/06/30 09:47:07;;;;;;;;;4.25;4.25;;;;;30.42;32.07;101256.44;4973727;28;46512;-73
2023/06/30 09:49:32;;;;;;;;;3.80;3.80;;;;;30.50;33.00;101263.25;4966400;28;45624;-72
2023/06/30 09:51:59;;;;;;;;;4.25;3.25;;;;;30.59;31.10;101253.69;4964355;28;45406;-71
2023/06/30 09:54:26;;;;;;;;;2.40;2.40;;;;;30.77;32.72;101244.53;4976598;28;45158;-72
2023/06/30 09:57:02;;;;;;;;;2.80;2.80;;;;;30.79;31.21;101247.19;4968477;28;46361;-72
2023/06/30 09:59:28;;;;;;;;;2.40;2.40;;;;;30.92;29.32;101251.06;4962405;28;45373;-71
2023/06/30 10:01:58;;;;;;;;;5.00;2.00;;;;;30.97;30.38;101246.22;4968421;28;45295;-72
2023/06/30 10:04:25;;;;;;;;;1.40;1.40;;;;;31.10;29.00;101237.38;4975165;28;45494;-72
2023/06/30 10:06:51;;;;;;;;;1.40;1.40;;;;;31.05;28.64;101237.63;4965288;28;45387;-72
2023/06/30 10:09:20;;;;;;;;;3.00;2.00;;;;;30.89;28.96;101223.03;4975100;28;45286;-73
2023/06/30 10:11:53;;;;;;;;;3.20;3.20;;;;;30.89;31.45;101234.84;4963576;28;45399;-72
2023/06/30 10:14:21;;;;;;;;;3.20;3.20;;;;;30.85;28.45;101249.63;4972394;28;47135;-73
2023/06/30 10:16:47;;;;;;;;;2.80;2.80;;;;;30.78;29.63;101239.94;4971071;28;46718;-72
2023/06/30 10:19:14;;;;;;;;;1.40;1.20;;;;;30.76;30.07;101239.16;4972750;28;45307;-72
2023/06/30 10:21:41;;;;;;;;;3.00;3.00;;;;;30.59;29.53;101240.06;4969250;28;45393;-72
2023/06/30 10:24:07;;;;;;;;;3.80;3.20;;;;;30.33;30.15;101227.75;4976088;28;45384;-72
2023/06/30 10:26:36;;;;;;;;;4.40;3.00;;;;;30.11;31.20;101226.09;4968753;28;46016;-72
2023/06/30 10:29:02;;;;;;;;;3.80;3.80;;;;;29.82;30.74;101238.44;4972632;28;45438;-72
2023/06/30 10:31:28;;;;;;;;;1.40;1.00;;;;;29.59;31.11;101216.88;4969980;28;45486;-72
2023/06/30 10:33:53;;;;;;;;;4.75;4.25;;;;;29.57;29.87;101225.09;4970611;28;45600;-73
2023/06/30 10:36:19;;;;;;;;;3.25;2.25;;;;;29.74;31.14;101242.50;4972795;28;46218;-72
2023/06/30 10:38:46;;;;;;;;;3.00;3.00;;;;;29.74;28.63;101224.31;4965671;28;45311;-73
2023/06/30 10:41:19;;;;;;;;;4.80;3.00;;;;;30.00;30.35;101235.78;4972642;28;45419;-72
2023/06/30 10:44:00;;;;;;;;;2.60;2.60;;;;;29.97;29.98;101231.38;4978014;28;45734;-73
2023/06/30 10:46:49;;;;;;;;;4.00;4.00;;;;;29.95;30.69;101237.88;4970065;28;46071;-73
2023/06/30 10:49:20;;;;;;;;;3.00;3.00;;;;;29.83;28.74;101247.53;4976634;28;45464;-73
2023/06/30 10:51:51;;;;;;;;;35.50;30.25;;;;;29.78;30.76;101244.16;4971432;28;45348;-74
2023/06/30 10:54:21;;;;;;;;;2.20;2.20;;;;;29.80;29.85;101240.38;4964420;28;45482;-71
2023/06/30 10:56:48;;;;;;;;;2.60;2.60;;;;;29.85;28.31;101248.31;4960904;28;45449;-71
2023/06/30 10:59:20;;;;;;;;;4.40;2.00;;;;;30.02;29.79;101240.19;4975521;28;45289;-71
2023/06/30 11:02:13;;;;;;;;;1.60;1.60;;;;;30.36;30.34;101237.63;4962800;28;45482;-71
2023/06/30 11:04:41;;;;;;;;;2.40;2.40;;;;;30.49;28.55;101227.84;4964189;28;45514;-72
2023/06/30 11:07:07;;;;;;;;;1.80;1.80;;;;;30.35;30.09;101206.75;4969437;28;46775;-72
2023/06/30 11:09:48;;;;;;;;;4.20;2.60;;;;;30.40;29.64;101240.13;4972622;28;45444;-72
2023/06/30 11:12:21;;;;;;;;;3.00;2.00;;;;;30.25;28.78;101236.34;4970254;28;45518;-72
2023/06/30 11:14:54;;;;;;;;;4.00;1.80;;;;;29.96;29.88;101225.97;4966767;28;45941;-72
2023/06/30 11:17:20;;;;;;;;;1.80;1.20;;;;;29.66;29.58;101231.97;4973632;28;46179;-72
2023/06/30 11:20:10;;;;;;;;;3.00;2.00;;;;;29.47;30.06;101229.25;4970039;28;45286;-72
2023/06/30 11:22:35;;;;;;;;;1.20;1.20;;;;;29.67;29.82;101231.91;4976563;28;45347;-72
2023/06/30 11:25:11;;;;;;;;;3.25;2.00;;;;;29.98;29.70;101232.25;4968200;28;45444;-72
2023/06/30 11:27:38;;;;;;;;;3.20;3.20;;;;;30.05;28.96;101230.97;4974492;28;45485;-71
2023/06/30 11:30:04;;;;;;;;;3.80;2.00;;;;;29.87;29.17;101213.69;4969336;28;45476;-71
2023/06/30 11:32:32;;;;;;;;;4.00;2.80;;;;;29.95;30.32;101208.75;4959670;28;45315;-72
2023/06/30 11:34:58;;;;;;;;;2.60;2.60;;;;;30.02;28.48;101220.22;4967209;28;45281;-71
2023/06/30 11:37:25;;;;;;;;;3.40;3.40;;;;;29.84;30.45;101206.56;4965009;28;45396;-71
2023/06/30 11:39:51;;;;;;;;;2.00;2.00;;;;;29.81;29.98;101214.88;4972678;28;45440;-72
2023/06/30 11:42:18;;;;;;;;;2.60;1.80;;;;;29.94;30.47;101223.34;4964331;28;45321;-71
2023/06/30 11:44:43;;;;;;;;;2.40;2.40;;;;;29.73;29.11;101206.22;4977571;28;45411;-71
2023/06/30 11:47:09;;;;;;;;;1.25;1.25;;;;;29.58;29.48;101206.94;4973100;28;46208;-71
2023/06/30 11:49:36;;;;;;;;;4.00;2.50;;;;;29.61;29.31;101221.28;4972718;28;45289;-71
2023/06/30 11:52:02;;;;;;;;;2.80;2.00;;;;;29.70;28.64;101208.22;4975371;28;45184;-71
2023/06/30 11:54:35;;;;;;;;;5.20;1.80;;;;;29.83;29.29;101188.44;4981495;28;45397;-72
2023/06/30 11:57:02;;;;;;;;;2.00;2.00;;;;;30.18;28.15;101196.66;4975782;28;46283;-72
2023/06/30 11:59:28;;;;;;;;;0.80;0.80;;;;;30.48;29.23;101212.44;4978482;28;45356;-71
2023/06/30 12:01:53;;;;;;;;;2.25;2.25;;;;;30.68;28.45;101184.09;4977386;28;45566;-71
2023/06/30 12:04:22;;;;;;;;;1.50;1.00;;;;;31.07;29.09;101197.47;4982311;28;45447;-71
2023/06/30 12:06:48;;;;;;;;;2.80;2.20;;;;;31.31;28.43;101197.06;4982104;28;45592;-72
2023/06/30 12:09:13;;;;;;;;;2.20;1.20;;;;;31.42;26.33;101191.91;4972283;28;45330;-72
2023/06/30 12:11:42;;;;;;;;;1.00;1.00;;;;;31.47;27.59;101188.91;4979024;28;45178;-72
2023/06/30 12:14:09;;;;;;;;;0.60;0.60;;;;;31.49;26.50;101173.31;4970576;28;46953;-71
2023/06/30 12:16:39;;;;;;;;;1.80;1.80;;;;;31.67;26.96;101178.56;4972426;28;45423;-72
2023/06/30 12:19:06;;;;;;;;;1.80;1.00;;;;;31.58;26.29;101165.47;4973420;28;45459;-70
2023/06/30 12:21:33;;;;;;;;;1.60;1.60;;;;;31.44;26.50;101148.97;4976521;28;45407;-70
2023/06/30 12:23:59;;;;;;;;;3.60;2.00;;;;;31.21;26.71;101175.72;4975303;28;46211;-71
2023/06/30 12:26:29;;;;;;;;;3.75;2.75;;;;;30.91;27.54;101163.78;4970595;28;45281;-72
2023/06/30 12:29:04;;;;;;;;;1.80;1.00;;;;;30.75;28.53;101158.22;4977305;28;45456;-72
2023/06/30 12:31:33;;;;;;;;;1.80;1.80;;;;;30.72;26.50;101161.13;4975024;28;45348;-72
2023/06/30 12:33:58;;;;;;;;;1.40;0.80;;;;;30.86;27.10;101161.28;4974114;28;45341;-70
2023/06/30 12:36:28;;;;;;;;;1.25;1.25;;;;;31.05;26.35;101152.97;4972387;28;47049;-70
2023/06/30 12:38:54;;;;;;;;;3.00;1.80;;;;;31.16;27.95;101136.84;4971715;28;45266;-72
2023/06/30 12:41:19;;;;;;;;;1.50;1.50;;;;;31.12;26.95;101139.88;4974593;28;45305;-69
2023/06/30 12:43:44;;;;;;;;;1.75;1.75;;;;;31.08;26.20;101144.59;4970743;28;45403;-71
2023/06/30 12:46:10;;;;;;;;;0.50;0.50;;;;;31.15;25.17;101145.16;4971859;28;50809;-70
2023/06/30 12:48:35;;;;;;;;;1.00;1.00;;;;;31.24;26.46;101147.34;4970066;28;45242;-70
2023/06/30 12:51:01;;;;;;;;;1.50;1.50;;;;;31.24;26.54;101135.56;4975939;28;45237;-72
2023/06/30 12:53:26;;;;;;;;;2.50;1.50;;;;;31.37;27.29;101132.06;4980533;28;45308;-70
2023/06/30 12:55:52;;;;;;;;;0.25;0.00;;;;;31.39;27.01;101115.56;4974142;28;46664;-70
2023/06/30 12:58:17;;;;;;;;;2.25;1.25;;;;;31.53;25.77;101128.44;4973168;28;45223;-72
2023/06/30 13:00:42;;;;;;;;;2.00;2.00;;;;;31.76;25.95;101121.59;4969945;28;45200;-72
2023/06/30 13:03:10;;;;;;;;;1.00;1.00;;;;;32.07;25.18;101117.97;4972697;28;45481;-70
2023/06/30 13:05:36;;;;;;;;;0.00;0.00;;;;;32.17;26.58;101123.75;4969995;28;45490;-72
2023/06/30 13:08:02;;;;;;;;;1.50;1.00;;;;;32.11;26.87;101119.53;4969578;28;45805;-72
2023/06/30 13:10:27;;;;;;;;;1.75;0.75;;;;;32.08;25.29;101109.66;4967368;28;45715;-72
2023/06/30 13:12:52;;;;;;;;;0.25;0.25;;;;;32.05;25.99;101119.91;4970557;28;45503;-72
2023/06/30 13:15:18;;;;;;;;;3.75;0.75;;;;;31.60;25.13;101113.47;4968808;28;46374;-72
2023/06/30 13:17:43;;;;;;;;;1.00;1.00;;;;;31.49;25.64;101124.13;4972843;28;45357;-72
2023/06/30 13:20:09;;;;;;;;;2.00;1.00;;;;;31.42;26.14;101123.59;4976648;28;45482;-72
2023/06/30 13:22:35;;;;;;;;;1.80;1.80;;;;;31.41;26.02;101124.56;4978764;28;45443;-72
2023/06/30 13:25:01;;;;;;;;;1.20;0.60;;;;;31.51;25.61;101127.63;4973402;28;47369;-72
2023/06/30 13:27:26;;;;;;;;;2.00;2.00;;;;;31.57;25.85;101116.38;4971060;28;45313;-73
2023/06/30 13:29:52;;;;;;;;;3.00;2.25;;;;;31.82;25.40;101111.22;4972275;28;45228;-71
2023/06/30 13:32:17;;;;;;;;;1.25;1.25;;;;;32.05;24.35;101093.44;4965945;28;45751;-70
2023/06/30 13:34:47;;;;;;;;;1.00;0.75;;;;;32.43;25.21;101111.19;4971115;28;45976;-70
2023/06/30 13:37:13;;;;;;;;;0.20;0.00;;;;;32.61;24.84;101117.41;4975060;28;45422;-70
2023/06/30 13:39:38;;;;;;;;;0.00;0.00;;;;;32.56;23.95;101111.34;4974115;28;45403;-70
2023/06/30 13:42:05;;;;;;;;;0.00;0.00;;;;;32.37;23.64;101112.44;4962151;28;45223;-69
2023/06/30 13:44:31;;;;;;;;;1.00;1.00;;;;;32.20;24.90;101107.16;4964241;28;45462;-69
2023/06/30 13:46:57;;;;;;;;;0.80;0.80;;;;;31.89;25.36;101092.56;4961304;28;45293;-69
2023/06/30 13:49:22;;;;;;;;;1.00;1.00;;;;;31.69;24.87;101095.63;4976252;28;45419;-69
2023/06/30 13:51:47;;;;;;;;;0.75;0.75;;;;;31.59;24.61;101106.19;4970581;28;45470;-71
2023/06/30 13:54:13;;;;;;;;;1.00;0.25;;;;;31.54;23.88;101084.63;4972627;28;47884;-72
2023/06/30 13:56:38;;;;;;;;;1.25;0.25;;;;;31.64;24.08;101101.34;4970167;28;45170;-72
2023/06/30 13:59:03;;;;;;;;;0.00;0.00;;;;;31.48;24.98;101109.59;4975472;28;46188;-71
2023/06/30 14:01:28;;;;;;;;;0.00;0.00;;;;;31.43;24.30;101100.78;4973623;28;45612;-72
2023/06/30 14:03:54;;;;;;;;;2.00;1.00;;;;;31.49;24.94;101100.41;4976285;28;45367;-71
2023/06/30 14:06:19;;;;;;;;;2.00;1.00;;;;;31.39;24.56;101082.78;4969448;28;57987;-71
2023/06/30 14:08:46;;;;;;;;;1.25;1.00;;;;;31.21;23.58;101087.44;4974777;28;45454;-71
2023/06/30 14:11:14;;;;;;;;;0.20;0.20;;;;;31.16;24.87;101084.97;4972375;28;45443;-72
2023/06/30 14:13:40;;;;;;;;;0.80;0.80;;;;;31.10;24.13;101073.53;4978838;28;45381;-71
2023/06/30 14:16:05;;;;;;;;;1.25;0.00;;;;;31.12;24.87;101075.19;4967597;28;45429;-71
2023/06/30 14:18:31;;;;;;;;;0.25;0.25;;;;;31.17;25.50;101078.56;4969362;28;45563;-72
2023/06/30 14:20:56;;;;;;;;;0.25;0.25;;;;;31.32;24.64;101076.78;4965743;28;45413;-72
2023/06/30 14:23:21;;;;;;;;;0.50;0.50;;;;;31.34;23.92;101063.00;4977115;28;51420;-71
2023/06/30 14:25:47;;;;;;;;;1.00;1.00;;;;;31.53;24.67;101058.25;4965660;28;52716;-71
2023/06/30 14:28:12;;;;;;;;;0.25;0.25;;;;;31.71;23.57;101055.41;4973855;28;45415;-72
2023/06/30 14:30:37;;;;;;;;;0.75;0.75;;;;;31.91;24.04;101071.53;4967629;28;45618;-72
2023/06/30 14:33:03;;;;;;;;;0.00;0.00;;;;;31.91;24.38;101046.91;4967272;28;46780;-72
2023/06/30 14:35:31;;;;;;;;;0.00;0.00;;;;;31.89;23.87;101063.38;4967559;28;45139;-72
2023/06/30 14:37:57;;;;;;;;;0.00;0.00;;;;;31.85;23.98;101059.06;4971365;28;45520;-72
2023/06/30 14:40:24;;;;;;;;;0.50;0.50;;;;;31.82;23.62;101052.91;4962977;28;45480;-72
2023/06/30 14:42:50;;;;;;;;;0.00;0.00;;;;;31.91;24.16;101056.94;4965688;28;45326;-73
2023/06/30 14:45:15;;;;;;;;;0.50;0.50;;;;;31.91;23.47;101044.19;4976683;28;45412;-72
2023/06/30 14:47:41;;;;;;;;;0.00;0.00;;;;;31.85;22.95;101019.91;4970725;28;45199;-72
2023/06/30 14:50:07;;;;;;;;;1.00;1.00;;;;;31.94;22.90;101027.59;4974261;28;45914;-71
2023/06/30 14:52:32;;;;;;;;;0.00;0.00;;;;;32.05;23.93;101032.41;4972920;28;45254;-72
2023/06/30 14:54:57;;;;;;;;;0.00;0.00;;;;;32.25;23.87;101040.22;4966311;28;45361;-72
2023/06/30 14:57:23;;;;;;;;;0.00;0.00;;;;;32.38;22.74;101040.34;4972831;28;45729;-72
2023/06/30 14:59:48;;;;;;;;;1.00;1.00;;;;;32.36;22.81;101047.75;4973907;28;45496;-73
2023/06/30 15:02:14;;;;;;;;;0.00;0.00;;;;;32.39;22.30;101042.09;4966976;28;46206;-73
2023/06/30 15:04:39;;;;;;;;;0.50;0.50;;;;;32.44;23.18;101055.50;4966791;28;45702;-74
2023/06/30 15:07:05;;;;;;;;;0.00;0.00;;;;;32.40;23.57;101052.06;4965283;28;45465;-74
2023/06/30 15:09:30;;;;;;;;;1.50;0.25;;;;;32.25;23.55;101039.34;4971457;28;45552;-72
2023/06/30 15:11:55;;;;;;;;;1.00;0.00;;;;;32.13;23.25;101030.06;4970490;28;45386;-74
2023/06/30 15:14:21;;;;;;;;;0.00;0.00;;;;;32.18;22.61;101041.59;4962710;28;45352;-73
2023/06/30 15:16:47;;;;;;;;;0.75;0.50;;;;;32.06;23.25;101021.34;4968777;28;45385;-73
2023/06/30 15:19:12;;;;;;;;;0.50;0.00;;;;;32.03;21.63;101023.41;4967013;28;45522;-72
2023/06/30 15:21:37;;;;;;;;;0.75;0.75;;;;;32.00;22.89;101029.06;4967126;28;45404;-73
2023/06/30 15:24:03;;;;;;;;;0.00;0.00;;;;;31.89;22.85;101026.94;4966931;28;45389;-74
2023/06/30 15:26:28;;;;;;;;;0.25;0.25;;;;;31.82;22.32;101029.19;4968409;28;45392;-74
2023/06/30 15:28:53;;;;;;;;;0.00;0.00;;;;;31.78;23.01;101024.00;4967956;28;45247;-74
2023/06/30 15:31:19;;;;;;;;;0.25;0.25;;;;;31.64;22.91;101008.44;4967047;28;45431;-73
2023/06/30 15:33:44;;;;;;;;;0.75;0.75;;;;;31.49;22.32;101021.16;4970655;28;45250;-73
2023/06/30 15:36:09;;;;;;;;;0.25;0.25;;;;;31.36;22.25;101022.88;4966085;28;45160;-73
2023/06/30 15:38:35;;;;;;;;;0.00;0.00;;;;;31.06;21.84;101012.75;4967415;28;45228;-73
2023/06/30 15:41:03;;;;;;;;;1.00;1.00;;;;;31.16;22.39;101016.69;4963668;28;45470;-73
2023/06/30 15:43:28;;;;;;;;;0.60;0.60;;;;;31.06;23.61;101010.03;4969538;28;45382;-74
2023/06/30 15:45:56;;;;;;;;;1.25;0.25;;;;;31.05;23.85;100999.16;4971158;28;45309;-73
2023/06/30 15:48:21;;;;;;;;;0.00;0.00;;;;;30.99;23.14;101023.13;4974761;28;45513;-73
2023/06/30 15:50:46;;;;;;;;;0.00;0.00;;;;;30.94;23.33;101013.44;4967753;28;46864;-73
2023/06/30 15:53:12;;;;;;;;;1.25;0.00;;;;;30.86;23.46;101008.41;4977495;28;45282;-74
2023/06/30 15:55:37;;;;;;;;;1.00;1.00;;;;;30.78;23.92;101008.84;4967743;28;45592;-73
2023/06/30 15:58:03;;;;;;;;;0.25;0.25;;;;;30.72;23.36;101002.81;4969115;28;45339;-73
2023/06/30 16:00:28;;;;;;;;;0.00;0.00;;;;;30.79;24.17;101006.97;4969052;28;46246;-74
2023/06/30 16:02:54;;;;;;;;;0.00;0.00;;;;;30.75;23.74;100987.19;4965966;28;45376;-73
2023/06/30 16:05:19;;;;;;;;;0.25;0.25;;;;;30.61;24.21;100980.72;4961848;28;45667;-73
2023/06/30 16:07:44;;;;;;;;;2.25;0.75;;;;;30.58;24.14;100992.69;4968282;28;45617;-72
2023/06/30 16:10:10;;;;;;;;;2.00;0.25;;;;;30.50;24.27;100974.03;4963749;28;45362;-72
2023/06/30 16:12:35;;;;;;;;;1.75;1.00;;;;;30.31;24.45;100979.66;4974612;28;45390;-73
2023/06/30 16:15:03;;;;;;;;;0.00;0.00;;;;;30.11;25.04;100996.19;4968893;28;45464;-72
2023/06/30 16:17:30;;;;;;;;;1.40;1.40;;;;;29.94;24.79;100988.91;4969753;28;46382;-73
2023/06/30 16:19:55;;;;;;;;;2.80;1.80;;;;;29.83;25.14;100978.59;4969100;28;46302;-72
2023/06/30 16:22:20;;;;;;;;;0.00;0.00;;;;;29.69;24.51;100959.38;4965250;28;45336;-72
2023/06/30 16:24:46;;;;;;;;;1.00;1.00;;;;;29.78;25.21;100980.66;4966295;28;45688;-72
2023/06/30 16:27:11;;;;;;;;;5.75;3.25;;;;;29.58;24.96;100975.38;4963729;28;45400;-74
2023/06/30 16:29:37;;;;;;;;;2.00;2.00;;;;;29.42;25.27;100965.25;4969683;28;45403;-73
2023/06/30 16:32:03;;;;;;;;;1.25;1.25;;;;;29.40;25.38;100960.84;4966239;28;45372;-74
2023/06/30 16:34:29;;;;;;;;;2.60;2.60;;;;;29.36;25.56;100951.06;4971840;28;45397;-73
2023/06/30 16:36:54;;;;;;;;;4.75;2.50;;;;;29.33;25.75;100953.97;4978398;28;45669;-74
2023/06/30 16:39:19;;;;;;;;;4.50;4.00;;;;;29.12;25.66;100942.31;4972967;28;46200;-74
2023/06/30 16:41:45;;;;;;;;;4.00;4.00;;;;;29.05;25.47;100946.31;4963868;28;50076;-73
2023/06/30 16:44:10;;;;;;;;;6.50;5.00;;;;;29.01;26.02;100957.31;4972233;28;45273;-74
2023/06/30 16:46:35;;;;;;;;;4.75;3.25;;;;;28.93;26.09;100945.94;4973039;28;45307;-74
2023/06/30 16:49:01;;;;;;;;;5.50;5.00;;;;;28.90;25.83;100946.06;4973843;28;45326;-74
2023/06/30 16:51:26;;;;;;;;;5.00;5.00;;;;;28.69;25.55;100945.31;4971005;28;48979;-73
2023/06/30 16:53:51;;;;;;;;;6.75;6.75;;;;;28.66;26.27;100952.75;4974826;28;45483;-74
2023/06/30 16:56:17;;;;;;;;;7.50;6.50;;;;;28.44;26.25;100952.91;4969311;28;52976;-74
2023/06/30 16:58:42;;;;;;;;;5.50;4.25;;;;;28.26;26.88;100955.50;4975574;28;45459;-74
2023/06/30 17:01:07;;;;;;;;;3.75;3.75;;;;;27.95;26.78;100949.69;4971448;28;45357;-72
2023/06/30 17:03:32;;;;;;;;;7.00;5.50;;;;;27.74;26.97;100951.53;4968203;28;45187;-74
2023/06/30 17:05:58;;;;;;;;;2.00;2.00;;;;;27.53;27.34;100948.81;4968661;28;46167;-73
2023/06/30 17:08:23;;;;;;;;;6.75;4.75;;;;;27.35;27.70;100936.03;4978730;28;45298;-73
2023/06/30 17:10:48;;;;;;;;;3.00;3.00;;;;;27.28;27.59;100946.28;4972165;28;45427;-74
2023/06/30 17:13:14;;;;;;;;;4.00;4.00;;;;;27.16;28.30;100947.66;4969103;28;45439;-73
2023/06/30 17:15:39;;;;;;;;;4.00;4.00;;;;;27.07;28.61;100952.59;4968870;28;45420;-76
2023/06/30 17:18:04;;;;;;;;;6.00;3.25;;;;;26.85;28.80;100934.47;4974932;28;47553;-74
2023/06/30 17:20:30;;;;;;;;;4.75;4.50;;;;;26.72;28.92;100936.81;4970567;28;45336;-73
2023/06/30 17:22:55;;;;;;;;;6.25;4.50;;;;;26.51;29.07;100938.56;4976045;28;45382;-74
2023/06/30 17:25:20;;;;;;;;;3.00;3.00;;;;;26.46;29.76;100948.66;4969069;28;45364;-74
2023/06/30 17:27:46;;;;;;;;;6.00;4.00;;;;;26.22;29.78;100931.53;4966736;28;45360;-74
2023/06/30 17:30:11;;;;;;;;;2.00;2.00;;;;;26.24;29.46;100945.00;4966136;28;45365;-75